sensor_id;sensor_type;location;lat;lon;timestamp;P1;durP1;ratioP1;P2;durP2;ratioP2
33864;SDS011;20159;51.072;13.526;2023-03-01T00:00:37;37.20;;;25.63;;
33864;SDS011;20159;51.072;13.526;2023-03-01T00:03:03;38.22;;;25.63;;
33864;SDS011;20159;51.072;13.526;2023-03-01T00:05:29;36.17;;;25.38;;
33864;SDS011;20159;51.072;13.526;2023-03-01T00:07:54;35.17;;;25.58;;
33864;SDS011;20159;51.072;13.526;2023-03-01T00:10:20;36.17;;;26.00;;
33864;SDS011;20159;51.072;13.526;2023-03-01T00:12:45;36.33;;;24.75;;
33864;SDS011;20159;51.072;13.526;2023-03-01T00:15:11;36.33;;;26.10;;
33864;SDS011;20159;51.072;13.526;2023-03-01T00:17:36;38.40;;;25.52;;
33864;SDS011;20159;51.072;13.526;2023-03-01T00:20:02;36.33;;;26.92;;
33864;SDS011;20159;51.072;13.526;2023-03-01T00:22:30;34.13;;;24.95;;
33864;SDS011;20159;51.072;13.526;2023-03-01T00:24:55;35.80;;;24.52;;
33864;SDS011;20159;51.072;13.526;2023-03-01T00:27:21;34.55;;;22.98;;
33864;SDS011;20159;51.072;13.526;2023-03-01T00:29:46;39.05;;;25.05;;
33864;SDS011;20159;51.072;13.526;2023-03-01T00:32:12;39.30;;;27.08;;
33864;SDS011;20159;51.072;13.526;2023-03-01T00:34:37;36.95;;;25.58;;
33864;SDS011;20159;51.072;13.526;2023-03-01T00:37:03;36.28;;;26.27;;
33864;SDS011;20159;51.072;13.526;2023-03-01T00:39:30;38.38;;;27.95;;
33864;SDS011;20159;51.072;13.526;2023-03-01T00:41:56;36.30;;;25.38;;
33864;SDS011;20159;51.072;13.526;2023-03-01T00:44:22;36.42;;;24.98;;
33864;SDS011;20159;51.072;13.526;2023-03-01T00:46:48;34.85;;;24.73;;
33864;SDS011;20159;51.072;13.526;2023-03-01T00:49:13;39.72;;;25.52;;
33864;SDS011;20159;51.072;13.526;2023-03-01T00:51:39;34.63;;;24.10;;
33864;SDS011;20159;51.072;13.526;2023-03-01T00:54:07;38.45;;;24.42;;
33864;SDS011;20159;51.072;13.526;2023-03-01T00:56:33;36.83;;;24.08;;
33864;SDS011;20159;51.072;13.526;2023-03-01T00:58:59;37.42;;;26.52;;
33864;SDS011;20159;51.072;13.526;2023-03-01T01:01:25;36.92;;;25.70;;
33864;SDS011;20159;51.072;13.526;2023-03-01T01:03:57;35.15;;;24.27;;
33864;SDS011;20159;51.072;13.526;2023-03-01T01:06:29;34.55;;;23.17;;
33864;SDS011;20159;51.072;13.526;2023-03-01T01:09:10;34.10;;;23.08;;
33864;SDS011;20159;51.072;13.526;2023-03-01T01:11:47;31.38;;;21.70;;
33864;SDS011;20159;51.072;13.526;2023-03-01T01:14:16;33.13;;;23.50;;
33864;SDS011;20159;51.072;13.526;2023-03-01T01:16:42;34.25;;;23.85;;
33864;SDS011;20159;51.072;13.526;2023-03-01T01:19:09;33.30;;;23.60;;
33864;SDS011;20159;51.072;13.526;2023-03-01T01:21:38;35.58;;;24.95;;
33864;SDS011;20159;51.072;13.526;2023-03-01T01:24:05;34.78;;;23.20;;
33864;SDS011;20159;51.072;13.526;2023-03-01T01:26:32;33.78;;;22.27;;
33864;SDS011;20159;51.072;13.526;2023-03-01T01:28:59;32.20;;;22.75;;
33864;SDS011;20159;51.072;13.526;2023-03-01T01:31:25;33.30;;;23.35;;
33864;SDS011;20159;51.072;13.526;2023-03-01T01:33:53;30.70;;;22.33;;
33864;SDS011;20159;51.072;13.526;2023-03-01T01:36:19;31.83;;;21.80;;
33864;SDS011;20159;51.072;13.526;2023-03-01T01:38:44;32.75;;;21.77;;
33864;SDS011;20159;51.072;13.526;2023-03-01T01:41:11;34.47;;;22.75;;
33864;SDS011;20159;51.072;13.526;2023-03-01T01:43:39;32.90;;;22.00;;
33864;SDS011;20159;51.072;13.526;2023-03-01T01:46:14;32.95;;;22.80;;
33864;SDS011;20159;51.072;13.526;2023-03-01T01:48:55;30.85;;;21.05;;
33864;SDS011;20159;51.072;13.526;2023-03-01T01:51:25;29.65;;;20.45;;
33864;SDS011;20159;51.072;13.526;2023-03-01T01:54:02;31.92;;;22.15;;
33864;SDS011;20159;51.072;13.526;2023-03-01T01:56:33;36.60;;;23.02;;
33864;SDS011;20159;51.072;13.526;2023-03-01T01:58:59;32.35;;;23.52;;
33864;SDS011;20159;51.072;13.526;2023-03-01T02:01:26;35.78;;;23.23;;
33864;SDS011;20159;51.072;13.526;2023-03-01T02:03:51;31.85;;;22.33;;
33864;SDS011;20159;51.072;13.526;2023-03-01T02:06:31;37.25;;;26.20;;
33864;SDS011;20159;51.072;13.526;2023-03-01T02:09:03;30.90;;;22.17;;
33864;SDS011;20159;51.072;13.526;2023-03-01T02:11:32;31.85;;;22.63;;
33864;SDS011;20159;51.072;13.526;2023-03-01T02:13:59;34.15;;;22.02;;
33864;SDS011;20159;51.072;13.526;2023-03-01T02:16:25;33.60;;;23.70;;
33864;SDS011;20159;51.072;13.526;2023-03-01T02:18:51;34.10;;;23.23;;
33864;SDS011;20159;51.072;13.526;2023-03-01T02:21:23;33.58;;;22.83;;
33864;SDS011;20159;51.072;13.526;2023-03-01T02:23:51;32.97;;;22.45;;
33864;SDS011;20159;51.072;13.526;2023-03-01T02:29:11;34.95;;;22.30;;
33864;SDS011;20159;51.072;13.526;2023-03-01T02:31:37;35.20;;;22.98;;
33864;SDS011;20159;51.072;13.526;2023-03-01T02:34:11;30.88;;;21.08;;
33864;SDS011;20159;51.072;13.526;2023-03-01T02:36:44;33.95;;;23.42;;
33864;SDS011;20159;51.072;13.526;2023-03-01T02:39:14;32.90;;;22.33;;
33864;SDS011;20159;51.072;13.526;2023-03-01T02:41:44;35.10;;;22.58;;
33864;SDS011;20159;51.072;13.526;2023-03-01T02:44:13;30.45;;;20.88;;
33864;SDS011;20159;51.072;13.526;2023-03-01T02:46:43;32.90;;;21.13;;
33864;SDS011;20159;51.072;13.526;2023-03-01T02:49:27;33.50;;;21.85;;
33864;SDS011;20159;51.072;13.526;2023-03-01T02:52:01;33.55;;;21.75;;
33864;SDS011;20159;51.072;13.526;2023-03-01T02:54:41;33.47;;;21.67;;
33864;SDS011;20159;51.072;13.526;2023-03-01T02:57:28;31.15;;;21.83;;
33864;SDS011;20159;51.072;13.526;2023-03-01T02:59:56;32.55;;;22.63;;
33864;SDS011;20159;51.072;13.526;2023-03-01T03:02:28;32.33;;;21.70;;
33864;SDS011;20159;51.072;13.526;2023-03-01T03:05:01;31.65;;;20.02;;
33864;SDS011;20159;51.072;13.526;2023-03-01T03:07:31;30.73;;;20.50;;
33864;SDS011;20159;51.072;13.526;2023-03-01T03:09:58;30.95;;;21.48;;
33864;SDS011;20159;51.072;13.526;2023-03-01T03:12:23;30.65;;;19.98;;
33864;SDS011;20159;51.072;13.526;2023-03-01T03:14:49;31.52;;;20.05;;
33864;SDS011;20159;51.072;13.526;2023-03-01T03:17:14;29.98;;;20.90;;
33864;SDS011;20159;51.072;13.526;2023-03-01T03:19:40;29.50;;;20.30;;
33864;SDS011;20159;51.072;13.526;2023-03-01T03:22:05;31.15;;;20.38;;
33864;SDS011;20159;51.072;13.526;2023-03-01T03:24:34;33.00;;;22.38;;
33864;SDS011;20159;51.072;13.526;2023-03-01T03:27:03;29.13;;;20.17;;
33864;SDS011;20159;51.072;13.526;2023-03-01T03:29:30;31.35;;;20.55;;
33864;SDS011;20159;51.072;13.526;2023-03-01T03:31:55;27.00;;;19.42;;
33864;SDS011;20159;51.072;13.526;2023-03-01T03:34:21;30.83;;;19.52;;
33864;SDS011;20159;51.072;13.526;2023-03-01T03:36:47;29.38;;;20.25;;
33864;SDS011;20159;51.072;13.526;2023-03-01T03:39:12;33.05;;;20.60;;
33864;SDS011;20159;51.072;13.526;2023-03-01T03:41:38;27.42;;;18.58;;
33864;SDS011;20159;51.072;13.526;2023-03-01T03:44:03;29.20;;;20.75;;
33864;SDS011;20159;51.072;13.526;2023-03-01T03:46:29;27.27;;;18.38;;
33864;SDS011;20159;51.072;13.526;2023-03-01T03:48:55;31.30;;;18.52;;
33864;SDS011;20159;51.072;13.526;2023-03-01T03:51:20;30.05;;;19.70;;
33864;SDS011;20159;51.072;13.526;2023-03-01T03:53:47;30.58;;;19.83;;
33864;SDS011;20159;51.072;13.526;2023-03-01T03:56:13;29.10;;;19.48;;
33864;SDS011;20159;51.072;13.526;2023-03-01T03:58:38;29.63;;;19.38;;
33864;SDS011;20159;51.072;13.526;2023-03-01T04:01:04;29.45;;;19.60;;
33864;SDS011;20159;51.072;13.526;2023-03-01T04:03:31;31.38;;;21.25;;
33864;SDS011;20159;51.072;13.526;2023-03-01T04:05:58;29.92;;;20.10;;
33864;SDS011;20159;51.072;13.526;2023-03-01T04:08:25;27.70;;;20.00;;
33864;SDS011;20159;51.072;13.526;2023-03-01T04:10:52;29.98;;;19.77;;
33864;SDS011;20159;51.072;13.526;2023-03-01T04:13:45;30.88;;;19.88;;
33864;SDS011;20159;51.072;13.526;2023-03-01T04:16:10;28.60;;;20.33;;
33864;SDS011;20159;51.072;13.526;2023-03-01T04:18:36;31.98;;;20.55;;
33864;SDS011;20159;51.072;13.526;2023-03-01T04:21:01;30.90;;;20.30;;
33864;SDS011;20159;51.072;13.526;2023-03-01T04:23:27;31.98;;;21.10;;
33864;SDS011;20159;51.072;13.526;2023-03-01T04:25:53;31.67;;;21.17;;
33864;SDS011;20159;51.072;13.526;2023-03-01T04:28:21;30.23;;;19.33;;
33864;SDS011;20159;51.072;13.526;2023-03-01T04:30:49;31.52;;;20.52;;
33864;SDS011;20159;51.072;13.526;2023-03-01T04:33:15;30.75;;;20.20;;
33864;SDS011;20159;51.072;13.526;2023-03-01T04:35:40;30.95;;;20.55;;
33864;SDS011;20159;51.072;13.526;2023-03-01T04:38:06;33.83;;;22.80;;
33864;SDS011;20159;51.072;13.526;2023-03-01T04:40:32;37.83;;;23.10;;
33864;SDS011;20159;51.072;13.526;2023-03-01T04:42:58;31.98;;;21.10;;
33864;SDS011;20159;51.072;13.526;2023-03-01T04:45:23;30.27;;;20.25;;
33864;SDS011;20159;51.072;13.526;2023-03-01T04:47:49;33.05;;;20.55;;
33864;SDS011;20159;51.072;13.526;2023-03-01T04:50:17;34.17;;;21.88;;
33864;SDS011;20159;51.072;13.526;2023-03-01T04:52:45;31.52;;;20.70;;
33864;SDS011;20159;51.072;13.526;2023-03-01T04:55:11;32.47;;;20.85;;
33864;SDS011;20159;51.072;13.526;2023-03-01T04:57:37;34.22;;;22.15;;
33864;SDS011;20159;51.072;13.526;2023-03-01T05:00:03;31.40;;;19.70;;
33864;SDS011;20159;51.072;13.526;2023-03-01T05:02:49;29.17;;;20.58;;
33864;SDS011;20159;51.072;13.526;2023-03-01T05:05:21;28.65;;;19.35;;
33864;SDS011;20159;51.072;13.526;2023-03-01T05:07:55;31.52;;;18.58;;
33864;SDS011;20159;51.072;13.526;2023-03-01T05:10:22;31.75;;;19.63;;
33864;SDS011;20159;51.072;13.526;2023-03-01T05:12:49;29.38;;;18.65;;
33864;SDS011;20159;51.072;13.526;2023-03-01T05:15:14;28.20;;;18.98;;
33864;SDS011;20159;51.072;13.526;2023-03-01T05:17:40;28.98;;;18.70;;
33864;SDS011;20159;51.072;13.526;2023-03-01T05:20:06;29.65;;;19.95;;
33864;SDS011;20159;51.072;13.526;2023-03-01T05:22:33;27.73;;;19.35;;
33864;SDS011;20159;51.072;13.526;2023-03-01T05:25:00;28.40;;;18.33;;
33864;SDS011;20159;51.072;13.526;2023-03-01T05:27:25;30.65;;;20.60;;
33864;SDS011;20159;51.072;13.526;2023-03-01T05:29:51;30.02;;;20.17;;
33864;SDS011;20159;51.072;13.526;2023-03-01T05:32:16;29.58;;;19.42;;
33864;SDS011;20159;51.072;13.526;2023-03-01T05:34:42;31.75;;;20.13;;
33864;SDS011;20159;51.072;13.526;2023-03-01T05:37:08;31.45;;;19.83;;
33864;SDS011;20159;51.072;13.526;2023-03-01T05:39:34;29.05;;;19.02;;
33864;SDS011;20159;51.072;13.526;2023-03-01T05:42:00;31.80;;;21.13;;
33864;SDS011;20159;51.072;13.526;2023-03-01T05:44:27;30.55;;;20.58;;
33864;SDS011;20159;51.072;13.526;2023-03-01T05:46:53;31.80;;;20.58;;
33864;SDS011;20159;51.072;13.526;2023-03-01T05:49:19;34.45;;;20.60;;
33864;SDS011;20159;51.072;13.526;2023-03-01T05:51:49;28.88;;;19.73;;
33864;SDS011;20159;51.072;13.526;2023-03-01T05:54:16;29.02;;;19.25;;
33864;SDS011;20159;51.072;13.526;2023-03-01T05:56:42;31.58;;;20.83;;
33864;SDS011;20159;51.072;13.526;2023-03-01T05:59:08;30.00;;;19.67;;
33864;SDS011;20159;51.072;13.526;2023-03-01T06:01:34;31.40;;;20.63;;
33864;SDS011;20159;51.072;13.526;2023-03-01T06:04:00;34.53;;;20.15;;
33864;SDS011;20159;51.072;13.526;2023-03-01T06:06:26;29.75;;;19.10;;
33864;SDS011;20159;51.072;13.526;2023-03-01T06:08:52;34.42;;;20.55;;
33864;SDS011;20159;51.072;13.526;2023-03-01T06:11:18;33.78;;;20.25;;
33864;SDS011;20159;51.072;13.526;2023-03-01T06:13:44;32.17;;;20.10;;
33864;SDS011;20159;51.072;13.526;2023-03-01T06:16:10;31.98;;;19.65;;
33864;SDS011;20159;51.072;13.526;2023-03-01T06:18:37;34.45;;;21.42;;
33864;SDS011;20159;51.072;13.526;2023-03-01T06:21:03;34.15;;;20.85;;
33864;SDS011;20159;51.072;13.526;2023-03-01T06:23:29;31.75;;;19.65;;
33864;SDS011;20159;51.072;13.526;2023-03-01T06:25:55;29.95;;;19.55;;
33864;SDS011;20159;51.072;13.526;2023-03-01T06:28:20;33.40;;;20.88;;
33864;SDS011;20159;51.072;13.526;2023-03-01T06:30:46;32.60;;;21.02;;
33864;SDS011;20159;51.072;13.526;2023-03-01T06:33:12;30.40;;;18.70;;
33864;SDS011;20159;51.072;13.526;2023-03-01T06:35:38;32.45;;;21.38;;
33864;SDS011;20159;51.072;13.526;2023-03-01T06:38:04;35.00;;;21.80;;
33864;SDS011;20159;51.072;13.526;2023-03-01T06:40:30;33.75;;;22.98;;
33864;SDS011;20159;51.072;13.526;2023-03-01T06:42:56;34.30;;;23.08;;
33864;SDS011;20159;51.072;13.526;2023-03-01T06:45:22;41.97;;;24.25;;
33864;SDS011;20159;51.072;13.526;2023-03-01T06:47:48;37.55;;;24.08;;
33864;SDS011;20159;51.072;13.526;2023-03-01T06:50:14;32.15;;;22.48;;
33864;SDS011;20159;51.072;13.526;2023-03-01T06:52:41;35.45;;;23.98;;
33864;SDS011;20159;51.072;13.526;2023-03-01T06:55:08;33.97;;;22.40;;
33864;SDS011;20159;51.072;13.526;2023-03-01T06:57:34;39.47;;;24.08;;
33864;SDS011;20159;51.072;13.526;2023-03-01T07:00:00;39.03;;;25.60;;
33864;SDS011;20159;51.072;13.526;2023-03-01T07:02:25;36.97;;;25.80;;
33864;SDS011;20159;51.072;13.526;2023-03-01T07:04:51;38.72;;;25.48;;
33864;SDS011;20159;51.072;13.526;2023-03-01T07:07:17;38.05;;;25.83;;
33864;SDS011;20159;51.072;13.526;2023-03-01T07:09:46;38.65;;;26.77;;
33864;SDS011;20159;51.072;13.526;2023-03-01T07:12:13;40.80;;;27.77;;
33864;SDS011;20159;51.072;13.526;2023-03-01T07:14:39;43.28;;;32.92;;
33864;SDS011;20159;51.072;13.526;2023-03-01T07:17:04;39.13;;;31.30;;
33864;SDS011;20159;51.072;13.526;2023-03-01T07:19:30;36.42;;;30.50;;
33864;SDS011;20159;51.072;13.526;2023-03-01T07:21:55;36.65;;;29.60;;
33864;SDS011;20159;51.072;13.526;2023-03-01T07:24:21;34.15;;;27.95;;
33864;SDS011;20159;51.072;13.526;2023-03-01T07:26:49;32.03;;;28.35;;
33864;SDS011;20159;51.072;13.526;2023-03-01T07:29:16;32.22;;;27.50;;
33864;SDS011;20159;51.072;13.526;2023-03-01T07:31:42;31.40;;;27.88;;
33864;SDS011;20159;51.072;13.526;2023-03-01T07:34:08;29.75;;;25.98;;
33864;SDS011;20159;51.072;13.526;2023-03-01T07:36:34;28.83;;;25.65;;
33864;SDS011;20159;51.072;13.526;2023-03-01T07:38:59;30.75;;;26.08;;
33864;SDS011;20159;51.072;13.526;2023-03-01T07:41:28;27.35;;;24.48;;
33864;SDS011;20159;51.072;13.526;2023-03-01T07:43:54;27.40;;;24.38;;
33864;SDS011;20159;51.072;13.526;2023-03-01T07:46:20;25.75;;;23.08;;
33864;SDS011;20159;51.072;13.526;2023-03-01T07:48:46;25.55;;;22.85;;
33864;SDS011;20159;51.072;13.526;2023-03-01T07:51:11;24.10;;;21.50;;
33864;SDS011;20159;51.072;13.526;2023-03-01T07:53:37;23.27;;;20.83;;
33864;SDS011;20159;51.072;13.526;2023-03-01T07:56:07;23.85;;;21.40;;
33864;SDS011;20159;51.072;13.526;2023-03-01T07:58:34;24.67;;;22.05;;
33864;SDS011;20159;51.072;13.526;2023-03-01T08:01:02;23.95;;;21.00;;
33864;SDS011;20159;51.072;13.526;2023-03-01T08:03:28;24.27;;;21.52;;
33864;SDS011;20159;51.072;13.526;2023-03-01T08:05:54;24.00;;;21.50;;
33864;SDS011;20159;51.072;13.526;2023-03-01T08:08:20;22.55;;;20.25;;
33864;SDS011;20159;51.072;13.526;2023-03-01T08:10:45;24.02;;;21.42;;
33864;SDS011;20159;51.072;13.526;2023-03-01T08:13:11;24.30;;;21.80;;
33864;SDS011;20159;51.072;13.526;2023-03-01T08:15:36;23.00;;;20.60;;
33864;SDS011;20159;51.072;13.526;2023-03-01T08:18:02;24.20;;;21.60;;
33864;SDS011;20159;51.072;13.526;2023-03-01T08:20:27;24.42;;;21.85;;
33864;SDS011;20159;51.072;13.526;2023-03-01T08:22:53;26.02;;;22.75;;
33864;SDS011;20159;51.072;13.526;2023-03-01T08:25:18;23.08;;;20.67;;
33864;SDS011;20159;51.072;13.526;2023-03-01T08:27:44;22.40;;;20.02;;
33864;SDS011;20159;51.072;13.526;2023-03-01T08:30:09;22.20;;;19.88;;
33864;SDS011;20159;51.072;13.526;2023-03-01T08:32:37;21.60;;;19.40;;
33864;SDS011;20159;51.072;13.526;2023-03-01T08:35:03;22.45;;;20.05;;
33864;SDS011;20159;51.072;13.526;2023-03-01T08:37:29;21.58;;;18.95;;
33864;SDS011;20159;51.072;13.526;2023-03-01T08:39:55;21.92;;;19.58;;
33864;SDS011;20159;51.072;13.526;2023-03-01T08:42:21;22.67;;;20.13;;
33864;SDS011;20159;51.072;13.526;2023-03-01T08:44:46;22.60;;;19.90;;
33864;SDS011;20159;51.072;13.526;2023-03-01T08:47:12;21.77;;;19.45;;
33864;SDS011;20159;51.072;13.526;2023-03-01T08:49:38;21.98;;;19.63;;
33864;SDS011;20159;51.072;13.526;2023-03-01T08:52:04;22.13;;;19.58;;
33864;SDS011;20159;51.072;13.526;2023-03-01T08:54:29;21.95;;;19.75;;
33864;SDS011;20159;51.072;13.526;2023-03-01T08:56:55;21.33;;;19.10;;
33864;SDS011;20159;51.072;13.526;2023-03-01T08:59:21;24.17;;;20.92;;
33864;SDS011;20159;51.072;13.526;2023-03-01T09:01:46;21.67;;;19.38;;
33864;SDS011;20159;51.072;13.526;2023-03-01T09:04:12;22.98;;;20.48;;
33864;SDS011;20159;51.072;13.526;2023-03-01T09:06:39;23.15;;;20.63;;
33864;SDS011;20159;51.072;13.526;2023-03-01T09:09:05;21.92;;;19.63;;
33864;SDS011;20159;51.072;13.526;2023-03-01T09:11:31;22.83;;;19.63;;
33864;SDS011;20159;51.072;13.526;2023-03-01T09:13:56;22.98;;;20.38;;
33864;SDS011;20159;51.072;13.526;2023-03-01T09:16:22;20.80;;;18.60;;
33864;SDS011;20159;51.072;13.526;2023-03-01T09:18:48;22.92;;;19.83;;
33864;SDS011;20159;51.072;13.526;2023-03-01T09:21:16;22.55;;;20.20;;
33864;SDS011;20159;51.072;13.526;2023-03-01T09:23:46;23.05;;;20.55;;
33864;SDS011;20159;51.072;13.526;2023-03-01T09:26:13;22.60;;;19.38;;
33864;SDS011;20159;51.072;13.526;2023-03-01T09:28:44;21.67;;;18.48;;
33864;SDS011;20159;51.072;13.526;2023-03-01T09:31:10;21.42;;;19.23;;
33864;SDS011;20159;51.072;13.526;2023-03-01T09:33:39;21.20;;;18.98;;
33864;SDS011;20159;51.072;13.526;2023-03-01T09:36:07;21.92;;;19.63;;
33864;SDS011;20159;51.072;13.526;2023-03-01T09:38:36;22.73;;;20.40;;
33864;SDS011;20159;51.072;13.526;2023-03-01T09:41:02;22.48;;;20.10;;
33864;SDS011;20159;51.072;13.526;2023-03-01T09:46:06;22.05;;;19.67;;
33864;SDS011;20159;51.072;13.526;2023-03-01T09:48:42;23.33;;;20.20;;
33864;SDS011;20159;51.072;13.526;2023-03-01T09:51:12;24.05;;;21.10;;
33864;SDS011;20159;51.072;13.526;2023-03-01T09:53:43;23.55;;;21.13;;
33864;SDS011;20159;51.072;13.526;2023-03-01T09:56:30;23.52;;;20.70;;
33864;SDS011;20159;51.072;13.526;2023-03-01T10:02:14;24.27;;;21.27;;
33864;SDS011;20159;51.072;13.526;2023-03-01T10:04:50;25.05;;;20.70;;
33864;SDS011;20159;51.072;13.526;2023-03-01T10:07:31;24.77;;;21.38;;
33864;SDS011;20159;51.072;13.526;2023-03-01T10:10:07;22.35;;;19.98;;
33864;SDS011;20159;51.072;13.526;2023-03-01T10:12:37;23.25;;;20.75;;
33864;SDS011;20159;51.072;13.526;2023-03-01T10:17:51;24.23;;;21.30;;
33864;SDS011;20159;51.072;13.526;2023-03-01T10:20:37;24.95;;;20.45;;
33864;SDS011;20159;51.072;13.526;2023-03-01T10:23:11;23.33;;;20.77;;
33864;SDS011;20159;51.072;13.526;2023-03-01T10:28:31;23.52;;;20.40;;
33864;SDS011;20159;51.072;13.526;2023-03-01T10:31:13;23.00;;;20.55;;
33864;SDS011;20159;51.072;13.526;2023-03-01T10:33:43;24.45;;;20.67;;
33864;SDS011;20159;51.072;13.526;2023-03-01T10:36:09;25.40;;;21.15;;
33864;SDS011;20159;51.072;13.526;2023-03-01T10:38:51;22.35;;;19.98;;
33864;SDS011;20159;51.072;13.526;2023-03-01T10:41:22;22.73;;;20.17;;
33864;SDS011;20159;51.072;13.526;2023-03-01T10:43:56;24.02;;;21.38;;
33864;SDS011;20159;51.072;13.526;2023-03-01T10:46:25;24.00;;;21.10;;
33864;SDS011;20159;51.072;13.526;2023-03-01T10:51:31;25.17;;;19.65;;
33864;SDS011;20159;51.072;13.526;2023-03-01T10:53:57;23.60;;;20.58;;
33864;SDS011;20159;51.072;13.526;2023-03-01T10:56:23;23.45;;;20.83;;
33864;SDS011;20159;51.072;13.526;2023-03-01T10:59:03;24.17;;;20.95;;
33864;SDS011;20159;51.072;13.526;2023-03-01T11:01:33;23.23;;;20.63;;
33864;SDS011;20159;51.072;13.526;2023-03-01T11:06:35;23.27;;;20.52;;
33864;SDS011;20159;51.072;13.526;2023-03-01T11:09:15;24.95;;;21.95;;
33864;SDS011;20159;51.072;13.526;2023-03-01T11:11:44;24.02;;;21.50;;
33864;SDS011;20159;51.072;13.526;2023-03-01T11:14:18;23.80;;;21.35;;
33864;SDS011;20159;51.072;13.526;2023-03-01T11:16:47;24.63;;;21.10;;
33864;SDS011;20159;51.072;13.526;2023-03-01T11:19:22;22.00;;;19.63;;
33864;SDS011;20159;51.072;13.526;2023-03-01T11:22:02;22.70;;;20.30;;
33864;SDS011;20159;51.072;13.526;2023-03-01T11:24:49;22.60;;;20.20;;
33864;SDS011;20159;51.072;13.526;2023-03-01T11:27:19;24.10;;;20.95;;
33864;SDS011;20159;51.072;13.526;2023-03-01T11:29:54;25.90;;;22.30;;
33864;SDS011;20159;51.072;13.526;2023-03-01T11:32:25;24.80;;;21.83;;
33864;SDS011;20159;51.072;13.526;2023-03-01T11:34:56;26.48;;;22.98;;
33864;SDS011;20159;51.072;13.526;2023-03-01T11:51:19;26.00;;;21.20;;
33864;SDS011;20159;51.072;13.526;2023-03-01T11:54:27;24.55;;;21.88;;
33864;SDS011;20159;51.072;13.526;2023-03-01T12:07:46;18.45;;;16.48;;
33864;SDS011;20159;51.072;13.526;2023-03-01T12:10:23;20.48;;;16.73;;
33864;SDS011;20159;51.072;13.526;2023-03-01T12:13:12;20.45;;;17.30;;
33864;SDS011;20159;51.072;13.526;2023-03-01T12:22:01;19.30;;;15.80;;
33864;SDS011;20159;51.072;13.526;2023-03-01T12:29:54;18.05;;;15.63;;
33864;SDS011;20159;51.072;13.526;2023-03-01T12:38:33;17.98;;;14.60;;
33864;SDS011;20159;51.072;13.526;2023-03-01T12:41:24;18.20;;;15.23;;
33864;SDS011;20159;51.072;13.526;2023-03-01T12:44:30;17.60;;;15.40;;
33864;SDS011;20159;51.072;13.526;2023-03-01T12:49:45;17.83;;;15.85;;
33864;SDS011;20159;51.072;13.526;2023-03-01T12:52:22;20.20;;;16.60;;
33864;SDS011;20159;51.072;13.526;2023-03-01T12:55:06;19.67;;;17.15;;
33864;SDS011;20159;51.072;13.526;2023-03-01T13:01:00;19.40;;;15.70;;
33864;SDS011;20159;51.072;13.526;2023-03-01T13:09:31;20.88;;;18.13;;
33864;SDS011;20159;51.072;13.526;2023-03-01T13:12:41;19.70;;;16.48;;
33864;SDS011;20159;51.072;13.526;2023-03-01T13:17:48;19.67;;;17.10;;
33864;SDS011;20159;51.072;13.526;2023-03-01T13:20:18;19.40;;;16.13;;
33864;SDS011;20159;51.072;13.526;2023-03-01T13:22:46;21.02;;;17.40;;
33864;SDS011;20159;51.072;13.526;2023-03-01T13:25:19;19.17;;;16.90;;
33864;SDS011;20159;51.072;13.526;2023-03-01T13:27:45;18.83;;;16.60;;
33864;SDS011;20159;51.072;13.526;2023-03-01T13:35:49;19.38;;;17.10;;
33864;SDS011;20159;51.072;13.526;2023-03-01T13:41:05;20.35;;;16.90;;
33864;SDS011;20159;51.072;13.526;2023-03-01T13:43:32;19.75;;;17.08;;
33864;SDS011;20159;51.072;13.526;2023-03-01T13:46:07;20.65;;;17.75;;
33864;SDS011;20159;51.072;13.526;2023-03-01T13:48:47;19.58;;;16.77;;
33864;SDS011;20159;51.072;13.526;2023-03-01T13:51:16;19.80;;;17.60;;
33864;SDS011;20159;51.072;13.526;2023-03-01T13:53:50;18.38;;;16.30;;
33864;SDS011;20159;51.072;13.526;2023-03-01T13:56:21;19.33;;;16.40;;
33864;SDS011;20159;51.072;13.526;2023-03-01T13:58:55;20.63;;;17.20;;
33864;SDS011;20159;51.072;13.526;2023-03-01T14:01:27;19.15;;;16.55;;
33864;SDS011;20159;51.072;13.526;2023-03-01T14:03:57;22.35;;;17.15;;
33864;SDS011;20159;51.072;13.526;2023-03-01T14:06:31;19.98;;;17.25;;
33864;SDS011;20159;51.072;13.526;2023-03-01T14:09:17;19.63;;;16.80;;
33864;SDS011;20159;51.072;13.526;2023-03-01T14:14:30;22.00;;;17.60;;
33864;SDS011;20159;51.072;13.526;2023-03-01T14:17:20;21.42;;;16.05;;
33864;SDS011;20159;51.072;13.526;2023-03-01T14:20:03;21.40;;;16.00;;
33864;SDS011;20159;51.072;13.526;2023-03-01T14:22:42;18.65;;;16.05;;
33864;SDS011;20159;51.072;13.526;2023-03-01T14:28:04;17.92;;;16.02;;
33864;SDS011;20159;51.072;13.526;2023-03-01T14:30:43;18.27;;;16.02;;
33864;SDS011;20159;51.072;13.526;2023-03-01T14:33:21;20.58;;;16.13;;
33864;SDS011;20159;51.072;13.526;2023-03-01T14:36:00;19.73;;;15.40;;
33864;SDS011;20159;51.072;13.526;2023-03-01T14:40:58;16.48;;;14.63;;
33864;SDS011;20159;51.072;13.526;2023-03-01T14:43:26;20.02;;;17.30;;
33864;SDS011;20159;51.072;13.526;2023-03-01T14:45:54;20.45;;;16.90;;
33864;SDS011;20159;51.072;13.526;2023-03-01T14:48:20;19.48;;;15.98;;
33864;SDS011;20159;51.072;13.526;2023-03-01T14:50:46;19.13;;;15.38;;
33864;SDS011;20159;51.072;13.526;2023-03-01T14:53:16;19.23;;;15.88;;
33864;SDS011;20159;51.072;13.526;2023-03-01T14:55:55;17.20;;;14.63;;
33864;SDS011;20159;51.072;13.526;2023-03-01T14:58:25;19.25;;;15.90;;
33864;SDS011;20159;51.072;13.526;2023-03-01T15:00:57;20.65;;;15.73;;
33864;SDS011;20159;51.072;13.526;2023-03-01T15:03:33;19.13;;;15.75;;
33864;SDS011;20159;51.072;13.526;2023-03-01T15:06:01;18.58;;;15.82;;
33864;SDS011;20159;51.072;13.526;2023-03-01T15:08:28;20.45;;;16.85;;
33864;SDS011;20159;51.072;13.526;2023-03-01T15:11:02;17.75;;;15.38;;
33864;SDS011;20159;51.072;13.526;2023-03-01T15:13:49;20.17;;;16.40;;
33864;SDS011;20159;51.072;13.526;2023-03-01T15:16:17;20.42;;;16.73;;
33864;SDS011;20159;51.072;13.526;2023-03-01T15:19:05;19.10;;;15.82;;
33864;SDS011;20159;51.072;13.526;2023-03-01T15:24:00;19.85;;;16.30;;
33864;SDS011;20159;51.072;13.526;2023-03-01T15:26:44;19.85;;;16.45;;
33864;SDS011;20159;51.072;13.526;2023-03-01T15:29:23;21.35;;;17.58;;
33864;SDS011;20159;51.072;13.526;2023-03-01T15:31:58;20.50;;;17.25;;
33864;SDS011;20159;51.072;13.526;2023-03-01T15:34:28;19.40;;;16.10;;
33864;SDS011;20159;51.072;13.526;2023-03-01T15:36:56;21.13;;;16.77;;
33864;SDS011;20159;51.072;13.526;2023-03-01T15:42:02;18.67;;;16.08;;
33864;SDS011;20159;51.072;13.526;2023-03-01T15:44:30;21.80;;;16.88;;
33864;SDS011;20159;51.072;13.526;2023-03-01T15:46:58;19.02;;;16.40;;
33864;SDS011;20159;51.072;13.526;2023-03-01T15:49:40;21.92;;;18.08;;
33864;SDS011;20159;51.072;13.526;2023-03-01T15:52:12;19.70;;;17.02;;
33864;SDS011;20159;51.072;13.526;2023-03-01T15:54:44;21.63;;;17.83;;
33864;SDS011;20159;51.072;13.526;2023-03-01T15:57:13;22.00;;;17.70;;
33864;SDS011;20159;51.072;13.526;2023-03-01T15:59:40;22.00;;;17.48;;